createdAt,value
2019-02-12T00:00:29.263Z,4.17
2019-02-12T00:02:59.506Z,4.13
2019-02-12T00:05:30.249Z,4.23
2019-02-12T00:08:00.464Z,4.30
2019-02-12T00:10:31.261Z,4.00
2019-02-12T00:13:01.569Z,4.07
2019-02-12T00:15:33.873Z,4.47
2019-02-12T00:18:04.145Z,4.57
2019-02-12T00:20:34.934Z,4.33
2019-02-12T00:23:05.707Z,4.23
2019-02-12T00:25:37.544Z,3.97
2019-02-12T00:28:08.681Z,3.93
2019-02-12T00:30:39.024Z,3.50
2019-02-12T00:33:10.614Z,4.00
2019-02-12T00:35:40.478Z,4.00
2019-02-12T00:38:10.005Z,4.20
2019-02-12T00:40:39.546Z,3.40
2019-02-12T00:43:10.670Z,4.00
2019-02-12T00:45:40.982Z,4.47
2019-02-12T00:48:12.831Z,4.00
2019-02-12T00:50:45.491Z,4.23
2019-02-12T00:53:16.057Z,4.10
2019-02-12T00:55:46.501Z,3.97
2019-02-12T00:58:18.999Z,4.43
2019-02-12T01:00:49.649Z,4.33
2019-02-12T01:03:19.810Z,4.03
2019-02-12T01:05:50.061Z,4.50
2019-02-12T01:08:20.540Z,4.27
2019-02-12T01:10:50.606Z,4.63
2019-02-12T01:13:20.779Z,4.50
2019-02-12T01:15:51.325Z,4.87
2019-02-12T01:18:26.080Z,4.80
2019-02-12T01:20:56.718Z,4.40
2019-02-12T01:23:27.111Z,4.30
2019-02-12T01:25:58.598Z,4.20
2019-02-12T01:28:28.826Z,4.27
2019-02-12T01:30:59.133Z,4.97
2019-02-12T01:33:29.422Z,4.40
2019-02-12T01:35:59.570Z,4.70
2019-02-12T01:38:32.666Z,4.30
2019-02-12T01:41:03.695Z,4.23
2019-02-12T01:43:33.727Z,4.50
2019-02-12T01:46:03.348Z,4.77
2019-02-12T01:48:37.568Z,4.50
2019-02-12T01:51:08.174Z,4.60
2019-02-12T01:53:38.806Z,4.13
2019-02-12T01:56:09.135Z,4.27
2019-02-12T01:58:40.800Z,4.87
2019-02-12T02:01:11.024Z,4.47
2019-02-12T02:03:41.238Z,4.57
2019-02-12T02:06:11.559Z,4.30
2019-02-12T02:08:41.794Z,4.03
2019-02-12T02:11:12.641Z,4.70
2019-02-12T02:13:42.985Z,4.40
2019-02-12T02:16:17.018Z,4.13
2019-02-12T02:18:47.366Z,3.90
2019-02-12T02:21:19.029Z,3.90
2019-02-12T02:23:48.606Z,4.07
2019-02-12T02:26:19.264Z,3.87
2019-02-12T02:28:50.004Z,4.10
2019-02-12T02:31:19.594Z,4.30
2019-02-12T02:33:49.175Z,3.90
2019-02-12T02:36:19.342Z,3.60
2019-02-12T02:38:50.462Z,3.43
2019-02-12T02:41:21.048Z,3.90
2019-02-12T02:43:51.370Z,3.73
2019-02-12T02:46:21.975Z,3.77
2019-02-12T02:48:52.343Z,3.70
2019-02-12T02:51:22.644Z,3.50
2019-02-12T02:53:52.854Z,4.13
2019-02-12T02:56:23.479Z,3.73
2019-02-12T02:58:53.697Z,3.73
2019-02-12T03:01:24.273Z,4.37
2019-02-12T03:03:54.924Z,3.97
2019-02-12T03:06:24.550Z,3.70
2019-02-12T03:08:54.623Z,3.40
2019-02-12T03:11:25.332Z,3.70
2019-02-12T03:13:54.965Z,3.97
2019-02-12T03:16:25.585Z,3.90
2019-02-12T03:18:55.550Z,4.13
2019-02-12T03:21:25.029Z,4.00
2019-02-12T03:23:55.012Z,3.77
2019-02-12T03:26:25.288Z,4.47
2019-02-12T03:28:55.167Z,3.93
2019-02-12T03:31:25.112Z,4.17
2019-02-12T03:33:55.304Z,4.27
2019-02-12T03:36:25.631Z,4.00
2019-02-12T03:38:55.468Z,3.67
2019-02-12T03:41:25.570Z,3.90
2019-02-12T03:43:56.382Z,3.80
2019-02-12T03:46:26.668Z,4.30
2019-02-12T03:48:57.366Z,4.13
2019-02-12T03:51:27.576Z,3.80
2019-02-12T03:53:58.212Z,3.80
2019-02-12T03:56:28.795Z,3.67
2019-02-12T03:59:00.324Z,3.90
2019-02-12T04:01:30.235Z,4.17
2019-02-12T04:04:01.178Z,3.40
2019-02-12T04:06:31.708Z,3.73
2019-02-12T04:09:02.020Z,4.00
2019-02-12T04:11:33.487Z,3.50
2019-02-12T04:14:03.776Z,3.80
2019-02-12T04:16:34.363Z,3.43
2019-02-12T04:19:04.645Z,3.80
2019-02-12T04:21:35.377Z,3.53
2019-02-12T04:24:04.948Z,4.27
2019-02-12T04:26:38.050Z,4.00
2019-02-12T04:29:08.142Z,4.70
2019-02-12T04:31:39.413Z,4.20
2019-02-12T04:34:09.058Z,4.17
2019-02-12T04:36:39.135Z,4.03
2019-02-12T04:39:09.921Z,4.30
2019-02-12T04:41:40.171Z,4.97
2019-02-12T04:44:10.053Z,4.60
2019-02-12T04:46:40.306Z,4.97
2019-02-12T04:49:10.135Z,4.40
2019-02-12T04:51:40.248Z,4.80
2019-02-12T04:54:11.251Z,4.07
2019-02-12T04:56:41.805Z,4.47
2019-02-12T04:59:12.044Z,4.53
2019-02-12T05:01:42.161Z,4.63
2019-02-12T05:04:12.318Z,4.57
2019-02-12T05:06:42.896Z,4.67
2019-02-12T05:09:20.915Z,4.53
2019-02-12T05:11:52.397Z,4.90
2019-02-12T05:14:22.471Z,4.87
2019-02-12T05:16:52.534Z,5.43
2019-02-12T05:19:22.967Z,5.13
2019-02-12T05:21:53.648Z,4.93
2019-02-12T05:24:23.861Z,5.27
2019-02-12T05:26:58.720Z,4.40
2019-02-12T05:29:30.861Z,4.30
2019-02-12T05:32:01.136Z,4.70
2019-02-12T05:34:30.792Z,4.63
2019-02-12T05:37:01.597Z,5.23
2019-02-12T05:39:31.830Z,4.60
2019-02-12T05:42:02.003Z,4.60
2019-02-12T05:44:32.517Z,4.50
2019-02-12T05:47:02.157Z,4.43
2019-02-12T05:49:32.395Z,4.90
2019-02-12T05:52:02.151Z,5.20
2019-02-12T05:54:31.851Z,4.90
2019-02-12T05:57:01.841Z,5.30
2019-02-12T05:59:32.239Z,6.10
2019-02-12T06:02:02.902Z,5.80
2019-02-12T06:04:33.521Z,5.33
2019-02-12T06:07:03.163Z,5.57
2019-02-12T06:09:34.369Z,5.73
2019-02-12T06:12:05.713Z,6.17
2019-02-12T06:14:37.063Z,6.10
2019-02-12T06:17:06.745Z,5.67
2019-02-12T06:19:56.337Z,5.07
2019-02-12T06:22:27.216Z,5.60
2019-02-12T06:24:57.507Z,4.77
2019-02-12T06:27:27.860Z,5.90
2019-02-12T06:30:03.094Z,5.53
2019-02-12T06:32:34.930Z,5.67
2019-02-12T06:35:05.359Z,4.63
2019-02-12T06:37:35.679Z,5.87
2019-02-12T06:40:06.699Z,6.07
2019-02-12T06:42:38.476Z,5.63
2019-02-12T06:45:08.503Z,6.13
2019-02-12T06:47:38.323Z,5.60
2019-02-12T06:50:09.418Z,5.57
2019-02-12T06:52:39.771Z,5.43
2019-02-12T06:55:09.392Z,4.90
2019-02-12T06:57:39.493Z,5.43
2019-02-12T07:00:12.954Z,5.33
2019-02-12T07:03:12.333Z,5.67
2019-02-12T07:05:43.665Z,5.77
2019-02-12T07:08:38.535Z,4.40
2019-02-12T07:11:24.554Z,6.17
2019-02-12T07:14:08.784Z,4.37
2019-02-12T07:16:55.634Z,4.50
2019-02-12T07:19:33.620Z,5.33
2019-02-12T07:22:34.249Z,5.33
2019-02-12T07:25:51.294Z,5.60
2019-02-12T07:28:48.666Z,6.23
2019-02-12T07:31:37.330Z,5.00
2019-02-12T07:34:45.323Z,5.07
2019-02-12T07:37:44.624Z,5.90
2019-02-12T07:40:26.115Z,5.37
2019-02-12T07:43:32.996Z,5.77
2019-02-12T07:46:27.658Z,6.43
2019-02-12T07:49:19.565Z,6.57
2019-02-12T07:52:26.412Z,6.67
2019-02-12T07:55:30.771Z,6.10
2019-02-12T07:58:19.519Z,6.60
2019-02-12T08:01:18.074Z,6.87
2019-02-12T08:04:05.432Z,5.90
2019-02-12T08:07:05.689Z,6.27
2019-02-12T08:09:53.485Z,5.97
2019-02-12T08:12:57.272Z,5.70
2019-02-12T08:15:49.942Z,5.80
2019-02-12T08:18:25.731Z,4.80
2019-02-12T08:21:13.182Z,4.43
2019-02-12T08:24:20.414Z,7.50
2019-02-12T08:27:29.021Z,4.50
2019-02-12T08:30:45.375Z,4.90
2019-02-12T08:33:56.954Z,4.70
2019-02-12T08:36:37.991Z,4.20
2019-02-12T08:39:27.102Z,3.23
2019-02-12T08:42:22.886Z,4.00
2019-02-12T08:45:33.795Z,3.50
2019-02-12T08:48:27.081Z,3.50
2019-02-12T08:51:04.999Z,4.03
2019-02-12T08:54:24.040Z,4.23
2019-02-12T08:57:26.810Z,5.03
2019-02-12T09:00:28.222Z,5.17
2019-02-12T09:03:46.556Z,5.47
2019-02-12T09:06:46.389Z,5.13
2019-02-12T09:10:06.114Z,4.87
2019-02-12T09:13:17.124Z,4.47
2019-02-12T09:16:05.878Z,3.73
2019-02-12T09:19:03.602Z,4.30
2019-02-12T09:21:47.439Z,5.67
2019-02-12T09:25:06.186Z,5.20
2019-02-12T09:28:03.501Z,4.33
2019-02-12T09:31:09.160Z,5.00
2019-02-12T09:34:32.375Z,5.17
2019-02-12T09:37:36.370Z,5.50
2019-02-12T09:40:59.776Z,4.50
2019-02-12T09:43:48.487Z,5.23
2019-02-12T09:47:07.307Z,5.40
2019-02-12T09:49:56.289Z,4.10
2019-02-12T09:53:03.197Z,5.50
2019-02-12T09:55:52.363Z,4.80
2019-02-12T09:59:27.546Z,4.80
2019-02-12T10:02:33.689Z,5.13
2019-02-12T10:05:38.963Z,4.17
2019-02-12T10:08:35.526Z,4.23
2019-02-12T10:11:15.844Z,4.70
2019-02-12T10:14:10.408Z,4.80
2019-02-12T10:17:08.964Z,3.90
2019-02-12T10:19:50.252Z,4.37
2019-02-12T10:22:54.484Z,4.60
2019-02-12T10:25:48.704Z,4.07
2019-02-12T10:28:36.150Z,3.70
2019-02-12T10:31:41.828Z,3.57
2019-02-12T10:34:11.781Z,3.20
2019-02-12T10:36:41.406Z,3.47
2019-02-12T10:39:13.651Z,3.97
2019-02-12T10:41:44.123Z,3.40
2019-02-12T10:44:14.465Z,3.77
2019-02-12T10:46:44.777Z,3.43
2019-02-12T10:49:17.045Z,3.40
2019-02-12T10:51:47.840Z,3.67
2019-02-12T10:54:18.109Z,3.20
2019-02-12T10:56:50.510Z,3.50
2019-02-12T10:59:20.840Z,3.20
2019-02-12T11:01:53.075Z,3.40
2019-02-12T11:04:23.514Z,3.37
2019-02-12T11:06:54.804Z,3.60
2019-02-12T11:09:25.282Z,3.20
2019-02-12T11:11:54.915Z,3.43
2019-02-12T11:14:25.555Z,3.47
2019-02-12T11:16:58.174Z,3.63
2019-02-12T11:19:29.051Z,3.90
2019-02-12T11:21:59.570Z,3.60
2019-02-12T11:24:35.681Z,3.30
2019-02-12T11:27:04.821Z,3.73
2019-02-12T11:29:35.138Z,3.97
2019-02-12T11:32:05.573Z,3.37
2019-02-12T11:34:37.155Z,3.60
2019-02-12T11:37:07.661Z,3.77
2019-02-12T11:39:38.065Z,3.60
2019-02-12T11:42:07.854Z,3.73
2019-02-12T11:44:38.556Z,5.63
2019-02-12T11:47:10.494Z,3.50
2019-02-12T11:49:44.339Z,3.53
2019-02-12T11:52:18.108Z,3.87
2019-02-12T11:54:50.549Z,3.30
2019-02-12T11:57:21.875Z,4.40
2019-02-12T11:59:52.419Z,4.00
2019-02-12T12:02:41.979Z,3.63
2019-02-12T12:05:10.714Z,3.47
2019-02-12T12:07:40.396Z,3.40
2019-02-12T12:10:10.546Z,3.50
2019-02-12T12:12:40.454Z,3.67
2019-02-12T12:15:11.616Z,3.30
2019-02-12T12:17:42.249Z,3.47
2019-02-12T12:20:12.422Z,4.00
2019-02-12T12:22:42.156Z,3.80
2019-02-12T12:25:12.879Z,4.00
2019-02-12T12:27:43.419Z,3.30
2019-02-12T12:30:13.818Z,3.53
2019-02-12T12:32:43.634Z,3.40
2019-02-12T12:35:15.296Z,3.37
2019-02-12T12:37:46.902Z,3.57
2019-02-12T12:40:18.741Z,3.60
2019-02-12T12:42:49.535Z,3.77
2019-02-12T12:45:19.214Z,4.00
2019-02-12T12:47:49.042Z,4.00
2019-02-12T12:50:22.668Z,3.70
2019-02-12T12:52:53.488Z,4.17
2019-02-12T12:55:25.382Z,4.00
2019-02-12T12:57:58.764Z,4.80
2019-02-12T13:00:28.970Z,4.00
2019-02-12T13:02:59.812Z,4.20
2019-02-12T13:05:31.323Z,4.40
2019-02-12T13:08:11.290Z,3.60
2019-02-12T13:10:44.652Z,4.73
2019-02-12T13:13:17.009Z,4.07
2019-02-12T13:15:48.423Z,3.80
2019-02-12T13:18:18.556Z,4.10
2019-02-12T13:20:51.799Z,4.07
2019-02-12T13:23:21.408Z,3.10
2019-02-12T13:25:51.599Z,3.13
2019-02-12T13:28:22.060Z,3.77
2019-02-12T13:30:52.329Z,3.93
2019-02-12T13:33:22.581Z,3.90
2019-02-12T13:35:53.461Z,4.20
2019-02-12T13:38:23.151Z,3.80
2019-02-12T13:40:53.622Z,4.23
2019-02-12T13:43:23.882Z,4.10
2019-02-12T13:45:54.532Z,4.10
2019-02-12T13:48:24.932Z,3.63
2019-02-12T13:50:55.480Z,3.70
2019-02-12T13:53:25.397Z,3.80
2019-02-12T13:55:55.284Z,3.97
2019-02-12T13:58:26.415Z,3.87
2019-02-12T14:00:56.293Z,4.50
2019-02-12T14:03:27.616Z,4.43
2019-02-12T14:05:58.900Z,5.70
2019-02-12T14:08:28.398Z,4.70
2019-02-12T14:11:01.533Z,4.87
2019-02-12T14:13:31.277Z,4.57
2019-02-12T14:16:03.086Z,4.23
2019-02-12T14:18:35.286Z,4.13
2019-02-12T14:21:05.487Z,4.43
2019-02-12T14:23:36.475Z,3.53
2019-02-12T14:26:06.896Z,3.70
2019-02-12T14:28:36.779Z,4.20
2019-02-12T14:31:06.463Z,3.73
2019-02-12T14:33:36.716Z,3.93
2019-02-12T14:36:07.536Z,4.17
2019-02-12T14:38:37.747Z,3.73
2019-02-12T14:41:09.435Z,3.90
2019-02-12T14:43:41.587Z,3.97
2019-02-12T14:46:11.170Z,4.40
2019-02-12T14:48:41.094Z,4.10
2019-02-12T14:51:11.865Z,4.33
2019-02-12T14:53:42.125Z,4.03
2019-02-12T14:56:12.265Z,4.67
2019-02-12T14:58:42.864Z,4.80
2019-02-12T15:01:13.292Z,4.20
2019-02-12T15:03:45.159Z,4.50
2019-02-12T15:06:14.944Z,4.63
2019-02-12T15:08:44.485Z,4.07
2019-02-12T15:11:15.201Z,4.57
2019-02-12T15:13:45.553Z,4.57
2019-02-12T15:16:16.606Z,4.80
2019-02-12T15:18:47.660Z,4.50
2019-02-12T15:21:17.331Z,4.10
2019-02-12T15:23:49.938Z,4.17
2019-02-12T15:26:20.130Z,3.70
2019-02-12T15:28:51.153Z,3.27
2019-02-12T15:31:21.589Z,3.80
2019-02-12T15:33:51.949Z,3.70
2019-02-12T15:36:22.344Z,3.30
2019-02-12T15:38:52.846Z,3.30
2019-02-12T15:41:22.925Z,3.70
2019-02-12T15:43:53.813Z,3.43
2019-02-12T15:46:23.788Z,3.30
2019-02-12T15:48:54.472Z,3.50
2019-02-12T15:51:24.483Z,3.23
2019-02-12T15:53:54.725Z,3.17
2019-02-12T15:56:25.865Z,2.97
2019-02-12T15:58:56.544Z,2.87
2019-02-12T16:01:28.170Z,2.50
2019-02-12T16:03:58.260Z,2.90
2019-02-12T16:06:29.373Z,4.13
2019-02-12T16:08:59.907Z,3.00
2019-02-12T16:11:37.471Z,3.43
2019-02-12T16:14:11.791Z,3.20
2019-02-12T16:16:44.065Z,3.33
2019-02-12T16:19:16.750Z,3.60
2019-02-12T16:21:46.680Z,3.03
2019-02-12T16:24:16.888Z,3.60
2019-02-12T16:26:47.505Z,3.27
2019-02-12T16:29:17.111Z,3.23
2019-02-12T16:31:46.947Z,3.50
2019-02-12T16:34:17.262Z,3.80
2019-02-12T16:36:47.329Z,4.33
2019-02-12T16:39:17.096Z,3.50
2019-02-12T16:41:47.301Z,3.47
2019-02-12T16:44:18.058Z,3.40
2019-02-12T16:46:48.402Z,3.63
2019-02-12T16:49:22.593Z,4.63
2019-02-12T16:51:54.235Z,3.23
2019-02-12T16:54:25.747Z,3.73
2019-02-12T16:56:56.719Z,3.60
2019-02-12T16:59:27.975Z,3.70
2019-02-12T17:01:58.410Z,5.00
2019-02-12T17:04:28.716Z,3.87
2019-02-12T17:06:59.053Z,4.13
2019-02-12T17:09:29.262Z,4.20
2019-02-12T17:12:00.430Z,3.63
2019-02-12T17:14:30.269Z,3.37
2019-02-12T17:17:01.042Z,4.00
2019-02-12T17:19:31.611Z,3.77
2019-02-12T17:22:02.139Z,4.00
2019-02-12T17:27:13.997Z,2.80
2019-02-12T17:29:44.811Z,5.37
2019-02-12T17:32:16.044Z,3.07
2019-02-12T17:34:47.501Z,3.60
2019-02-12T17:37:18.207Z,3.73
2019-02-12T17:39:48.536Z,3.80
2019-02-12T17:42:18.881Z,3.30
2019-02-12T17:44:49.106Z,3.93
2019-02-12T17:47:18.847Z,3.07
2019-02-12T17:49:50.250Z,3.57
2019-02-12T17:52:21.846Z,3.90
2019-02-12T17:54:52.095Z,3.60
2019-02-12T17:57:24.605Z,3.80
2019-02-12T17:59:55.614Z,3.30
2019-02-12T18:02:26.120Z,3.40
2019-02-12T18:05:07.251Z,4.00
2019-02-12T18:07:38.013Z,3.90
2019-02-12T18:10:08.113Z,3.23
2019-02-12T18:12:39.189Z,3.10
2019-02-12T18:15:10.087Z,3.10
2019-02-12T18:17:39.760Z,3.53
2019-02-12T18:20:10.363Z,2.90
2019-02-12T18:22:40.669Z,3.60
2019-02-12T18:25:13.057Z,3.10
2019-02-12T18:27:43.449Z,3.53
2019-02-12T18:30:16.804Z,4.00
2019-02-12T18:32:46.422Z,3.63
2019-02-12T18:35:18.408Z,3.73
2019-02-12T18:37:49.120Z,3.33
2019-02-12T18:40:20.466Z,2.90
2019-02-12T18:42:50.401Z,2.93
2019-02-12T18:45:19.971Z,3.00
2019-02-12T18:47:49.817Z,2.80
2019-02-12T18:50:21.095Z,2.93
2019-02-12T18:52:50.859Z,3.10
2019-02-12T18:55:22.470Z,3.00
2019-02-12T18:57:53.066Z,3.30
2019-02-12T19:00:23.699Z,2.80
2019-02-12T19:02:53.533Z,3.37
2019-02-12T19:05:24.304Z,3.23
2019-02-12T19:07:54.845Z,2.83
2019-02-12T19:10:26.978Z,3.10
2019-02-12T19:12:57.914Z,3.10
2019-02-12T19:15:28.294Z,2.50
2019-02-12T19:18:00.282Z,2.80
2019-02-12T19:20:29.980Z,2.80
2019-02-12T19:22:59.582Z,3.10
2019-02-12T19:25:29.339Z,3.10
2019-02-12T19:27:59.840Z,3.43
2019-02-12T19:30:30.118Z,3.30
2019-02-12T19:33:01.159Z,3.17
2019-02-12T19:35:33.450Z,2.93
2019-02-12T19:38:04.187Z,2.90
2019-02-12T19:40:36.372Z,2.90
2019-02-12T19:43:06.379Z,2.73
2019-02-12T19:45:36.629Z,2.80
2019-02-12T19:48:06.570Z,4.07
2019-02-12T19:50:36.763Z,3.33
2019-02-12T19:53:06.742Z,2.90
2019-02-12T19:55:36.890Z,2.97
2019-02-12T19:58:07.742Z,2.90
2019-02-12T20:00:38.546Z,3.17
2019-02-12T20:03:09.179Z,2.50
2019-02-12T20:05:38.707Z,2.90
2019-02-12T20:08:10.641Z,3.20
2019-02-12T20:10:40.211Z,3.30
2019-02-12T20:13:10.366Z,3.00
2019-02-12T20:15:42.073Z,3.07
2019-02-12T20:18:12.266Z,3.20
2019-02-12T20:20:43.296Z,3.60
2019-02-12T20:23:13.446Z,2.70
2019-02-12T20:25:43.795Z,3.10
2019-02-12T20:28:15.168Z,3.13
2019-02-12T20:30:45.545Z,2.90
2019-02-12T20:33:16.266Z,2.80
2019-02-12T20:35:46.103Z,3.40
2019-02-12T20:38:16.170Z,3.93
2019-02-12T20:40:45.847Z,4.00
2019-02-12T20:43:16.279Z,3.27
2019-02-12T20:45:46.644Z,3.13
2019-02-12T20:48:17.460Z,2.90
2019-02-12T20:50:47.979Z,3.23
2019-02-12T20:53:20.257Z,3.10
2019-02-12T20:55:50.767Z,3.00
2019-02-12T20:58:21.444Z,3.30
2019-02-12T21:00:51.051Z,3.40
2019-02-12T21:03:21.557Z,3.33
2019-02-12T21:05:52.068Z,2.87
2019-02-12T21:08:22.292Z,3.37
2019-02-12T21:10:52.313Z,2.90
2019-02-12T21:13:23.776Z,3.20
2019-02-12T21:15:53.667Z,2.70
2019-02-12T21:18:23.636Z,3.90
2019-02-12T21:20:53.792Z,3.73
2019-02-12T21:23:25.939Z,3.60
2019-02-12T21:25:56.420Z,3.20
2019-02-12T21:28:28.979Z,3.43
2019-02-12T21:30:59.319Z,3.60
2019-02-12T21:33:29.911Z,3.30
2019-02-12T21:36:00.272Z,3.13
2019-02-12T21:38:30.066Z,3.93
2019-02-12T21:41:00.250Z,3.30
2019-02-12T21:43:31.763Z,4.03
2019-02-12T21:46:02.239Z,4.30
2019-02-12T21:48:32.906Z,4.70
2019-02-12T21:51:03.319Z,3.90
2019-02-12T21:53:33.730Z,3.50
2019-02-12T21:56:03.902Z,3.63
2019-02-12T21:58:34.756Z,3.47
2019-02-12T22:01:04.417Z,3.03
2019-02-12T22:03:35.194Z,4.53
2019-02-12T22:06:05.070Z,4.23
2019-02-12T22:08:38.030Z,4.40
2019-02-12T22:11:07.690Z,4.43
2019-02-12T22:13:38.194Z,4.03
2019-02-12T22:16:11.065Z,3.93
2019-02-12T22:18:40.582Z,3.93
2019-02-12T22:21:10.487Z,3.80
2019-02-12T22:23:41.185Z,4.07
2019-02-12T22:26:11.415Z,3.97
2019-02-12T22:28:42.349Z,3.93
2019-02-12T22:31:12.053Z,3.47
2019-02-12T22:33:42.143Z,3.57
2019-02-12T22:36:12.452Z,3.57
2019-02-12T22:38:43.154Z,3.53
2019-02-12T22:41:12.866Z,3.10
2019-02-12T22:43:42.770Z,3.40
2019-02-12T22:46:12.311Z,3.47
2019-02-12T22:48:41.811Z,3.53
2019-02-12T22:51:12.235Z,3.33
2019-02-12T22:53:42.811Z,3.80
2019-02-12T22:56:12.937Z,3.80
2019-02-12T22:58:43.513Z,3.60
2019-02-12T23:01:15.121Z,3.73
2019-02-12T23:03:45.642Z,3.53
2019-02-12T23:06:16.271Z,3.90
2019-02-12T23:08:46.832Z,3.43
2019-02-12T23:11:16.465Z,4.20
2019-02-12T23:13:46.096Z,4.57
2019-02-12T23:16:16.555Z,4.20
2019-02-12T23:18:48.053Z,3.90
2019-02-12T23:21:19.236Z,3.93
2019-02-12T23:23:49.153Z,4.07
2019-02-12T23:26:19.378Z,3.63
2019-02-12T23:28:51.565Z,3.73
2019-02-12T23:31:22.014Z,3.73
2019-02-12T23:33:52.235Z,3.90
2019-02-12T23:36:22.321Z,4.10
2019-02-12T23:38:52.951Z,3.63
2019-02-12T23:41:22.572Z,3.97
2019-02-12T23:43:52.943Z,3.80
2019-02-12T23:46:23.492Z,3.60
2019-02-12T23:48:56.357Z,3.80
2019-02-12T23:51:26.401Z,4.10
2019-02-12T23:53:56.894Z,3.80
2019-02-12T23:56:26.431Z,3.80
2019-02-12T23:58:57.084Z,3.60
